createdAt,value
2023-04-26T00:00:35.777Z,92087.75
2023-04-26T00:02:07.282Z,92087.91
2023-04-26T00:03:40.770Z,92089.31
2023-04-26T00:05:12.737Z,92093.25
2023-04-26T00:06:44.383Z,92089.78
2023-04-26T00:08:16.263Z,92083.81
2023-04-26T00:09:48.455Z,92077.81
2023-04-26T00:11:20.085Z,92073.88
2023-04-26T00:12:51.848Z,92067.56
2023-04-26T00:14:23.321Z,92074.66
2023-04-26T00:15:54.838Z,92072.63
2023-04-26T00:17:26.415Z,92064.13
2023-04-26T00:18:58.024Z,92056.88
2023-04-26T00:20:30.107Z,92066.78
2023-04-26T00:22:02.291Z,92068.38
2023-04-26T00:23:34.256Z,92061.75
2023-04-26T00:25:06.038Z,92066.00
2023-04-26T00:26:37.562Z,92062.22
2023-04-26T00:28:09.200Z,92058.13
2023-04-26T00:29:40.799Z,92064.09
2023-04-26T00:31:18.626Z,92063.47
2023-04-26T00:32:52.872Z,92065.84
2023-04-26T00:34:24.511Z,92061.41
2023-04-26T00:35:56.293Z,92065.03
2023-04-26T00:37:27.817Z,92057.94
2023-04-26T00:38:59.303Z,92061.06
2023-04-26T00:40:31.064Z,92064.41
2023-04-26T00:42:02.524Z,92063.31
2023-04-26T00:43:34.174Z,92064.88
2023-04-26T00:45:06.280Z,92064.91
2023-04-26T00:46:38.220Z,92062.38
2023-04-26T00:48:09.797Z,92063.63
2023-04-26T00:49:41.737Z,92054.97
2023-04-26T00:51:13.539Z,92063.97
2023-04-26T00:52:45.417Z,92063.31
2023-04-26T00:54:17.008Z,92073.41
2023-04-26T00:55:49.275Z,92070.09
2023-04-26T00:57:21.706Z,92076.88
2023-04-26T00:58:53.749Z,92075.44
2023-04-26T01:00:26.059Z,92068.50
2023-04-26T01:01:57.722Z,92072.59
2023-04-26T01:03:30.221Z,92067.09
2023-04-26T01:05:01.912Z,92072.44
2023-04-26T01:06:34.159Z,92066.63
2023-04-26T01:08:05.828Z,92067.53
2023-04-26T01:09:37.292Z,92063.94
2023-04-26T01:11:09.810Z,92060.59
2023-04-26T01:12:41.610Z,92047.22
2023-04-26T01:14:13.140Z,92052.56
2023-04-26T01:15:47.953Z,92058.09
2023-04-26T01:17:20.235Z,92059.38
2023-04-26T01:18:53.161Z,92062.84
2023-04-26T01:20:26.146Z,92075.56
2023-04-26T01:21:57.572Z,92077.63
2023-04-26T01:23:29.183Z,92065.34
2023-04-26T01:25:01.461Z,92068.34
2023-04-26T01:26:33.041Z,92065.16
2023-04-26T01:28:04.642Z,92057.78
2023-04-26T01:29:36.184Z,92051.16
2023-04-26T01:31:07.739Z,92057.78
2023-04-26T01:32:39.294Z,92053.69
2023-04-26T01:34:11.044Z,92049.09
2023-04-26T01:35:43.270Z,92050.69
2023-04-26T01:37:14.797Z,92045.34
2023-04-26T01:38:46.333Z,92047.38
2023-04-26T01:40:17.877Z,92043.13
2023-04-26T01:41:49.948Z,92042.34
2023-04-26T01:43:23.059Z,92047.56
2023-04-26T01:44:54.656Z,92050.53
2023-04-26T01:46:26.467Z,92049.28
2023-04-26T01:47:58.458Z,92048.78
2023-04-26T01:49:29.936Z,92043.91
2023-04-26T01:51:01.453Z,92032.72
2023-04-26T01:52:33.000Z,92037.59
2023-04-26T01:54:04.516Z,92043.59
2023-04-26T01:55:36.049Z,92040.28
2023-04-26T01:57:07.587Z,92048.97
2023-04-26T01:58:39.070Z,92051.34
2023-04-26T02:00:11.568Z,92047.69
2023-04-26T02:01:43.713Z,92047.09
2023-04-26T02:03:15.667Z,92052.31
2023-04-26T02:04:47.376Z,92058.09
2023-04-26T02:06:18.878Z,92056.53
2023-04-26T02:07:51.287Z,92052.59
2023-04-26T02:09:22.743Z,92062.06
2023-04-26T02:10:54.474Z,92059.69
2023-04-26T02:12:26.047Z,92060.78
2023-04-26T02:13:57.665Z,92070.88
2023-04-26T02:15:29.496Z,92065.50
2023-04-26T02:17:01.425Z,92066.91
2023-04-26T02:18:33.186Z,92058.88
2023-04-26T02:20:04.814Z,92056.03
2023-04-26T02:21:55.229Z,92053.84
2023-04-26T02:23:26.871Z,92043.44
2023-04-26T02:24:58.656Z,92034.97
2023-04-26T02:26:32.651Z,92026.75
2023-04-26T02:28:04.586Z,92023.59
2023-04-26T02:29:44.169Z,92013.19
2023-04-26T02:31:16.402Z,92011.63
2023-04-26T02:32:47.968Z,92005.19
2023-04-26T02:34:19.522Z,92005.97
2023-04-26T02:35:51.001Z,92004.88
2023-04-26T02:37:22.526Z,92003.16
2023-04-26T02:38:54.170Z,92002.84
2023-04-26T02:40:25.904Z,91995.41
2023-04-26T02:41:57.921Z,91989.44
2023-04-26T02:43:29.787Z,91981.09
2023-04-26T02:45:01.334Z,91988.81
2023-04-26T02:46:33.029Z,91996.19
2023-04-26T02:48:04.679Z,91985.97
2023-04-26T02:49:36.158Z,91992.72
2023-04-26T02:51:07.817Z,91985.66
2023-04-26T02:52:39.381Z,91989.28
2023-04-26T02:54:10.952Z,91999.06
2023-04-26T02:55:42.470Z,91982.81
2023-04-26T02:57:13.984Z,91996.53
2023-04-26T02:58:45.552Z,91992.56
2023-04-26T03:00:17.068Z,92003.16
2023-04-26T03:01:48.625Z,92003.94
2023-04-26T03:03:20.596Z,92005.81
2023-04-26T03:04:52.319Z,92005.03
2023-04-26T03:06:23.813Z,92010.22
2023-04-26T03:07:55.383Z,92013.69
2023-04-26T03:09:26.985Z,92007.53
2023-04-26T03:10:58.465Z,92017.16
2023-04-26T03:12:29.979Z,92013.84
2023-04-26T03:14:01.447Z,92013.84
2023-04-26T03:15:33.034Z,92018.41
2023-04-26T03:17:04.524Z,92012.91
2023-04-26T03:18:36.066Z,92007.22
2023-04-26T03:20:07.863Z,92013.19
2023-04-26T03:21:39.404Z,92010.53
2023-04-26T03:23:11.011Z,92007.84
2023-04-26T03:24:46.881Z,92014.94
2023-04-26T03:26:18.487Z,92013.19
2023-04-26T03:27:50.128Z,92012.09
2023-04-26T03:29:21.737Z,92009.44
2023-04-26T03:30:53.346Z,92027.06
2023-04-26T03:32:24.988Z,92022.50
2023-04-26T03:33:56.535Z,92023.44
2023-04-26T03:35:29.409Z,92022.81
2023-04-26T03:37:01.652Z,92028.34
2023-04-26T03:38:33.177Z,92032.41
2023-04-26T03:40:06.308Z,92028.34
2023-04-26T03:41:39.692Z,92032.91
2023-04-26T03:43:11.402Z,92027.06
2023-04-26T03:44:43.001Z,92020.13
2023-04-26T03:46:14.612Z,92026.28
2023-04-26T03:47:46.686Z,92025.66
2023-04-26T03:49:18.225Z,92027.69
2023-04-26T03:50:50.296Z,92026.91
2023-04-26T03:52:21.828Z,92021.53
2023-04-26T03:53:53.311Z,92019.97
2023-04-26T03:55:24.742Z,92025.31
2023-04-26T03:56:56.360Z,92030.22
2023-04-26T03:58:28.212Z,92033.34
2023-04-26T03:59:59.884Z,92032.13
2023-04-26T04:01:31.822Z,92033.38
2023-04-26T04:03:03.602Z,92031.50
2023-04-26T04:04:35.614Z,92030.38
2023-04-26T04:06:08.049Z,92030.06
2023-04-26T04:07:39.609Z,92027.38
2023-04-26T04:09:12.142Z,92030.53
2023-04-26T04:10:44.448Z,92036.06
2023-04-26T04:12:15.997Z,92042.34
2023-04-26T04:13:47.487Z,92042.19
2023-04-26T04:15:19.428Z,92050.09
2023-04-26T04:16:51.070Z,92040.47
2023-04-26T04:18:22.897Z,92046.00
2023-04-26T04:19:54.430Z,92046.44
2023-04-26T04:21:25.962Z,92039.53
2023-04-26T04:22:58.858Z,92051.50
2023-04-26T04:24:31.902Z,92051.66
2023-04-26T04:26:05.878Z,92045.03
2023-04-26T04:27:38.120Z,92057.00
2023-04-26T04:29:09.661Z,92056.69
2023-04-26T04:30:42.518Z,92055.59
2023-04-26T04:32:15.153Z,92054.50
2023-04-26T04:33:46.595Z,92057.34
2023-04-26T04:35:18.585Z,92054.81
2023-04-26T04:36:50.861Z,92054.00
2023-04-26T04:38:23.402Z,92063.78
2023-04-26T04:39:55.642Z,92051.50
2023-04-26T04:41:27.942Z,92051.19
2023-04-26T04:43:01.260Z,92055.13
2023-04-26T04:44:34.207Z,92059.69
2023-04-26T04:46:06.245Z,92059.53
2023-04-26T04:47:40.675Z,92062.22
2023-04-26T04:49:12.604Z,92056.53
2023-04-26T04:50:44.139Z,92064.59
2023-04-26T04:52:18.630Z,92068.19
2023-04-26T04:53:51.288Z,92068.03
2023-04-26T04:55:23.203Z,92060.16
2023-04-26T04:56:54.686Z,92063.63
2023-04-26T04:58:26.223Z,92063.31
2023-04-26T04:59:58.418Z,92059.50
2023-04-26T05:01:31.660Z,92057.16
2023-04-26T05:03:03.711Z,92054.13
2023-04-26T05:04:35.561Z,92053.69
2023-04-26T05:06:08.230Z,92054.94
2023-04-26T05:07:39.886Z,92054.47
2023-04-26T05:09:11.907Z,92060.31
2023-04-26T05:10:43.505Z,92057.63
2023-04-26T05:12:15.092Z,92052.88
2023-04-26T05:13:46.753Z,92060.63
2023-04-26T05:15:18.346Z,92053.34
2023-04-26T05:16:50.282Z,92055.56
2023-04-26T05:18:21.890Z,92053.34
2023-04-26T05:19:53.364Z,92054.00
2023-04-26T05:21:24.936Z,92062.66
2023-04-26T05:22:56.588Z,92060.00
2023-04-26T05:24:30.192Z,92057.31
2023-04-26T05:26:02.612Z,92055.25
2023-04-26T05:27:34.158Z,92059.63
2023-04-26T05:29:05.748Z,92052.09
2023-04-26T05:30:37.303Z,92053.50
2023-04-26T05:32:09.059Z,92050.69
2023-04-26T05:33:40.724Z,92047.69
2023-04-26T05:35:12.239Z,92054.16
2023-04-26T05:36:43.766Z,92060.94
2023-04-26T05:38:15.293Z,92057.16
2023-04-26T05:39:47.180Z,92052.06
2023-04-26T05:41:18.749Z,92067.38
2023-04-26T05:42:50.894Z,92063.28
2023-04-26T05:44:22.460Z,92073.34
2023-04-26T05:45:54.460Z,92066.72
2023-04-26T05:47:26.577Z,92070.31
2023-04-26T05:48:58.634Z,92079.63
2023-04-26T05:50:30.387Z,92071.09
2023-04-26T05:52:03.805Z,92069.00
2023-04-26T05:53:35.377Z,92069.63
2023-04-26T05:55:07.096Z,92076.88
2023-04-26T05:56:38.638Z,92075.56
2023-04-26T05:58:10.222Z,92076.97
2023-04-26T05:59:41.659Z,92078.34
2023-04-26T06:01:13.969Z,92079.75
2023-04-26T06:02:46.620Z,92076.88
2023-04-26T06:04:18.409Z,92074.81
2023-04-26T06:05:50.020Z,92080.97
2023-04-26T06:07:21.546Z,92077.16
2023-04-26T06:08:53.154Z,92079.84
2023-04-26T06:10:24.789Z,92077.81
2023-04-26T06:11:56.459Z,92081.88
2023-04-26T06:13:28.090Z,92085.19
2023-04-26T06:14:59.537Z,92079.91
2023-04-26T06:16:31.169Z,92082.69
2023-04-26T06:18:02.733Z,92072.75
2023-04-26T06:19:34.268Z,92078.88
2023-04-26T06:21:06.388Z,92077.38
2023-04-26T06:22:38.278Z,92077.75
2023-04-26T06:24:09.867Z,92081.19
2023-04-26T06:25:44.866Z,92075.03
2023-04-26T06:27:16.456Z,92078.97
2023-04-26T06:28:47.972Z,92077.47
2023-04-26T06:30:19.534Z,92075.47
2023-04-26T06:31:51.164Z,92076.06
2023-04-26T06:33:22.679Z,92080.91
2023-04-26T06:34:55.015Z,92076.78
2023-04-26T06:36:28.273Z,92081.03
2023-04-26T06:37:59.773Z,92077.09
2023-04-26T06:39:31.427Z,92077.56
2023-04-26T06:41:02.881Z,92080.25
2023-04-26T06:42:34.417Z,92080.25
2023-04-26T06:44:06.218Z,92084.50
2023-04-26T06:45:37.694Z,92084.50
2023-04-26T06:47:09.728Z,92083.00
2023-04-26T06:48:41.672Z,92089.06
2023-04-26T06:50:13.300Z,92089.72
2023-04-26T06:51:44.782Z,92078.50
2023-04-26T06:53:16.343Z,92086.09
2023-04-26T06:54:56.554Z,92083.41
2023-04-26T06:56:29.306Z,92087.03
2023-04-26T06:58:01.525Z,92091.84
2023-04-26T06:59:33.096Z,92090.09
2023-04-26T07:01:06.547Z,92091.69
2023-04-26T07:02:38.313Z,92095.47
2023-04-26T07:04:13.782Z,92094.03
2023-04-26T07:05:45.386Z,92102.53
2023-04-26T07:07:17.360Z,92104.78
2023-04-26T07:08:48.892Z,92100.53
2023-04-26T07:10:21.262Z,92101.84
2023-04-26T07:11:52.851Z,92102.84
2023-04-26T07:13:24.405Z,92094.31
2023-04-26T07:14:56.340Z,92112.59
2023-04-26T07:16:28.155Z,92110.56
2023-04-26T07:17:59.729Z,92109.00
2023-04-26T07:19:31.757Z,92108.00
2023-04-26T07:21:03.581Z,92111.28
2023-04-26T07:22:35.376Z,92108.59
2023-04-26T07:24:07.223Z,92117.66
2023-04-26T07:25:39.158Z,92122.88
2023-04-26T07:27:11.310Z,92123.25
2023-04-26T07:28:43.117Z,92117.50
2023-04-26T07:30:15.276Z,92121.13
2023-04-26T07:31:46.834Z,92124.59
2023-04-26T07:33:18.466Z,92132.47
2023-04-26T07:34:50.503Z,92124.00
2023-04-26T07:36:23.826Z,92132.97
2023-04-26T07:37:56.806Z,92127.72
2023-04-26T07:39:28.380Z,92138.16
2023-04-26T07:41:01.445Z,92141.44
2023-04-26T07:42:32.963Z,92140.78
2023-04-26T07:44:04.663Z,92137.75
2023-04-26T07:45:36.580Z,92142.59
2023-04-26T07:47:15.978Z,92134.19
2023-04-26T07:48:47.578Z,92138.38
2023-04-26T07:50:19.397Z,92139.53
2023-04-26T07:51:52.530Z,92139.13
2023-04-26T07:53:24.136Z,92136.06
2023-04-26T07:54:55.804Z,92139.13
2023-04-26T07:56:27.673Z,92136.34
2023-04-26T07:57:59.331Z,92137.69
2023-04-26T07:59:30.880Z,92141.63
2023-04-26T08:01:02.395Z,92144.75
2023-04-26T08:02:44.585Z,92139.72
2023-04-26T08:04:17.968Z,92145.47
2023-04-26T08:05:50.265Z,92139.88
2023-04-26T08:07:22.121Z,92143.78
2023-04-26T08:08:54.115Z,92143.78
2023-04-26T08:10:26.565Z,92143.13
2023-04-26T08:11:58.482Z,92145.81
2023-04-26T08:13:30.203Z,92140.09
2023-04-26T08:15:02.444Z,92142.03
2023-04-26T08:16:34.394Z,92137.31
2023-04-26T08:18:06.901Z,92134.16
2023-04-26T08:19:38.683Z,92136.63
2023-04-26T08:21:11.039Z,92136.84
2023-04-26T08:22:42.585Z,92137.97
2023-04-26T08:24:14.458Z,92145.06
2023-04-26T08:25:47.758Z,92147.75
2023-04-26T08:27:20.187Z,92144.91
2023-04-26T08:28:52.027Z,92143.66
2023-04-26T08:30:24.354Z,92142.19
2023-04-26T08:31:56.742Z,92137.78
2023-04-26T08:33:28.919Z,92144.88
2023-04-26T08:35:00.662Z,92144.53
2023-04-26T08:36:36.121Z,92137.41
2023-04-26T08:38:07.867Z,92136.94
2023-04-26T08:39:39.438Z,92138.31
2023-04-26T08:41:12.255Z,92138.06
2023-04-26T08:42:46.832Z,92141.66
2023-04-26T08:44:19.624Z,92144.88
2023-04-26T08:45:51.405Z,92146.91
2023-04-26T08:47:25.084Z,92137.00
2023-04-26T08:49:07.430Z,92129.84
2023-04-26T08:50:39.022Z,92135.44
2023-04-26T08:52:15.110Z,92139.19
2023-04-26T08:53:46.780Z,92133.00
2023-04-26T08:55:18.874Z,92133.63
2023-04-26T08:56:50.640Z,92143.94
2023-04-26T08:58:22.106Z,92140.97
2023-04-26T08:59:53.689Z,92143.19
2023-04-26T09:01:26.601Z,92139.84
2023-04-26T09:02:58.205Z,92138.81
2023-04-26T09:04:30.227Z,92132.47
2023-04-26T09:06:04.329Z,92136.84
2023-04-26T09:07:40.329Z,92133.06
2023-04-26T09:09:12.442Z,92127.84
2023-04-26T09:10:44.455Z,92136.38
2023-04-26T09:12:17.072Z,92137.09
2023-04-26T09:13:48.834Z,92134.19
2023-04-26T09:15:23.737Z,92135.78
2023-04-26T09:16:55.301Z,92139.09
2023-04-26T09:18:26.986Z,92133.41
2023-04-26T09:20:01.775Z,92133.25
2023-04-26T09:21:33.328Z,92135.78
2023-04-26T09:23:06.208Z,92140.50
2023-04-26T09:24:48.589Z,92130.56
2023-04-26T09:26:21.241Z,92142.06
2023-04-26T09:27:52.997Z,92136.06
2023-04-26T09:29:24.485Z,92132.22
2023-04-26T09:30:56.350Z,92129.59
2023-04-26T09:32:29.354Z,92133.25
2023-04-26T09:34:00.968Z,92121.66
2023-04-26T09:35:42.221Z,92121.13
2023-04-26T09:37:16.866Z,92128.19
2023-04-26T09:38:49.390Z,92129.75
2023-04-26T09:40:22.179Z,92137.53
2023-04-26T09:41:53.890Z,92137.34
2023-04-26T09:43:25.657Z,92122.91
2023-04-26T09:45:06.457Z,92120.78
2023-04-26T09:46:38.536Z,92121.22
2023-04-26T09:48:36.455Z,92118.59
2023-04-26T09:50:08.391Z,92124.38
2023-04-26T09:51:40.232Z,92126.09
2023-04-26T09:53:11.946Z,92115.91
2023-04-26T09:54:43.874Z,92111.16
2023-04-26T09:56:16.536Z,92118.19
2023-04-26T09:57:48.121Z,92123.13
2023-04-26T09:59:20.000Z,92130.69
2023-04-26T10:00:51.721Z,92124.13
2023-04-26T10:02:24.098Z,92116.41
2023-04-26T10:03:56.371Z,92115.44
2023-04-26T10:05:28.266Z,92119.72
2023-04-26T10:06:59.862Z,92107.66
2023-04-26T10:08:31.702Z,92112.28
2023-04-26T10:10:05.491Z,92121.69
2023-04-26T10:11:39.364Z,92116.41
2023-04-26T10:13:12.697Z,92120.53
2023-04-26T10:14:45.041Z,92119.13
2023-04-26T10:16:17.186Z,92117.16
2023-04-26T10:17:50.811Z,92124.34
2023-04-26T10:19:23.884Z,92113.50
2023-04-26T10:20:56.288Z,92112.88
2023-04-26T10:22:29.049Z,92112.53
2023-04-26T10:24:00.564Z,92114.50
2023-04-26T10:25:38.674Z,92108.06
2023-04-26T10:27:10.722Z,92107.34
2023-04-26T10:28:45.614Z,92112.72
2023-04-26T10:30:18.384Z,92108.47
2023-04-26T10:32:02.999Z,92108.63
2023-04-26T10:33:35.228Z,92112.72
2023-04-26T10:35:13.241Z,92105.56
2023-04-26T10:37:03.227Z,92114.22
2023-04-26T10:38:38.705Z,92106.91
2023-04-26T10:40:25.835Z,92105.84
2023-04-26T10:42:18.868Z,92115.19
2023-04-26T10:43:51.338Z,92110.38
2023-04-26T10:45:27.552Z,92102.97
2023-04-26T10:46:59.158Z,92108.06
2023-04-26T10:48:33.788Z,92090.72
2023-04-26T10:50:09.941Z,92103.03
2023-04-26T10:51:42.206Z,92108.22
2023-04-26T10:53:14.036Z,92111.63
2023-04-26T10:54:49.643Z,92103.31
2023-04-26T10:56:24.932Z,92111.53
2023-04-26T10:57:57.749Z,92113.81
2023-04-26T10:59:40.241Z,92109.41
2023-04-26T11:01:21.883Z,92111.50
2023-04-26T11:02:54.805Z,92109.38
2023-04-26T11:04:27.075Z,92106.47
2023-04-26T11:05:58.763Z,92112.25
2023-04-26T11:07:37.919Z,92113.81
2023-04-26T11:09:29.408Z,92107.09
2023-04-26T11:11:11.193Z,92111.03
2023-04-26T11:12:43.297Z,92104.53
2023-04-26T11:14:15.250Z,92106.09
2023-04-26T11:15:47.062Z,92106.16
2023-04-26T11:17:18.796Z,92099.31
2023-04-26T11:18:50.610Z,92098.59
2023-04-26T11:20:22.736Z,92112.91
2023-04-26T11:21:54.618Z,92109.13
2023-04-26T11:23:29.910Z,92101.91
2023-04-26T11:25:01.473Z,92112.03
2023-04-26T11:26:34.342Z,92101.66
2023-04-26T11:28:05.817Z,92116.09
2023-04-26T11:29:37.710Z,92106.88
2023-04-26T11:31:09.617Z,92109.28
2023-04-26T11:32:41.623Z,92114.00
2023-04-26T11:34:14.296Z,92117.94
2023-04-26T11:35:46.573Z,92115.72
2023-04-26T11:37:18.189Z,92111.88
2023-04-26T11:38:49.954Z,92116.81
2023-04-26T11:40:22.299Z,92119.22
2023-04-26T11:42:07.014Z,92122.53
2023-04-26T11:43:39.487Z,92125.09
2023-04-26T11:45:11.532Z,92118.69
2023-04-26T11:46:43.229Z,92111.31
2023-04-26T11:48:15.326Z,92104.66
2023-04-26T11:49:48.147Z,92116.22
2023-04-26T11:51:19.718Z,92102.81
2023-04-26T11:52:51.575Z,92109.59
2023-04-26T11:56:04.380Z,92115.78
2023-04-26T11:57:36.321Z,92111.91
2023-04-26T11:59:08.434Z,92121.56
2023-04-26T12:00:58.858Z,92121.00
2023-04-26T12:02:30.672Z,92118.06
2023-04-26T12:04:02.708Z,92115.09
2023-04-26T12:05:34.688Z,92118.84
2023-04-26T12:07:07.485Z,92109.16
2023-04-26T12:08:39.519Z,92119.94
2023-04-26T12:10:14.303Z,92105.19
2023-04-26T12:11:50.359Z,92116.59
2023-04-26T12:13:22.107Z,92120.69
2023-04-26T12:14:53.766Z,92117.97
2023-04-26T12:16:27.144Z,92120.25
2023-04-26T12:17:59.012Z,92121.22
2023-04-26T12:19:33.893Z,92115.81
2023-04-26T12:21:06.536Z,92121.66
2023-04-26T12:22:38.266Z,92116.25
2023-04-26T12:24:25.468Z,92111.97
2023-04-26T12:25:57.438Z,92117.47
2023-04-26T12:27:29.039Z,92121.41
2023-04-26T12:29:00.718Z,92126.47
2023-04-26T12:30:32.301Z,92116.84
2023-04-26T12:32:04.491Z,92111.88
2023-04-26T12:33:36.801Z,92116.59
2023-04-26T12:35:09.045Z,92115.81
2023-04-26T12:36:42.343Z,92110.47
2023-04-26T12:38:15.774Z,92110.53
2023-04-26T12:39:48.385Z,92106.66
2023-04-26T12:41:19.891Z,92104.47
2023-04-26T12:42:52.296Z,92106.91
2023-04-26T12:44:24.008Z,92104.81
2023-04-26T12:45:56.859Z,92116.06
2023-04-26T12:47:28.477Z,92114.22
2023-04-26T12:49:00.063Z,92105.66
2023-04-26T12:50:31.756Z,92108.81
2023-04-26T12:52:03.746Z,92112.66
2023-04-26T12:53:35.362Z,92108.81
2023-04-26T12:55:07.841Z,92110.22
2023-04-26T12:56:44.043Z,92109.34
2023-04-26T12:58:16.670Z,92106.03
2023-04-26T12:59:48.250Z,92107.00
2023-04-26T13:01:19.875Z,92116.56
2023-04-26T13:02:52.307Z,92113.75
2023-04-26T13:04:24.231Z,92119.16
2023-04-26T13:05:56.141Z,92104.09
2023-04-26T13:07:27.884Z,92113.16
2023-04-26T13:08:59.742Z,92116.69
2023-04-26T13:10:32.992Z,92118.09
2023-04-26T13:12:04.695Z,92111.78
2023-04-26T13:13:43.605Z,92110.81
2023-04-26T13:15:17.722Z,92120.72
2023-04-26T13:16:50.330Z,92121.84
2023-04-26T13:18:22.003Z,92125.09
2023-04-26T13:19:53.564Z,92118.59
2023-04-26T13:21:25.407Z,92121.28
2023-04-26T13:22:57.658Z,92120.91
2023-04-26T13:24:29.228Z,92124.31
2023-04-26T13:26:00.755Z,92134.22
2023-04-26T13:27:32.457Z,92123.75
2023-04-26T13:29:05.055Z,92128.38
2023-04-26T13:30:36.747Z,92134.38
2023-04-26T13:32:08.692Z,92142.03
2023-04-26T13:33:40.495Z,92135.28
2023-04-26T13:35:12.646Z,92150.13
2023-04-26T13:36:44.450Z,92147.44
2023-04-26T13:38:17.173Z,92150.13
2023-04-26T13:39:49.376Z,92143.16
2023-04-26T13:41:22.557Z,92144.72
2023-04-26T13:42:54.612Z,92149.94
2023-04-26T13:44:26.782Z,92154.44
2023-04-26T13:45:58.614Z,92153.66
2023-04-26T13:47:30.612Z,92151.84
2023-04-26T13:49:02.166Z,92150.34
2023-04-26T13:50:35.041Z,92150.91
2023-04-26T13:52:06.709Z,92155.41
2023-04-26T13:53:38.549Z,92154.53
2023-04-26T13:55:12.481Z,92159.63
2023-04-26T13:56:44.276Z,92160.78
2023-04-26T13:58:16.409Z,92146.63
2023-04-26T13:59:48.397Z,92164.25
2023-04-26T14:01:19.965Z,92167.75
2023-04-26T14:02:51.681Z,92167.63
2023-04-26T14:04:23.597Z,92172.16
2023-04-26T14:05:55.287Z,92178.19
2023-04-26T14:07:27.202Z,92178.53
2023-04-26T14:08:58.843Z,92175.84
2023-04-26T14:10:30.401Z,92183.34
2023-04-26T14:12:08.572Z,92183.13
2023-04-26T14:13:41.334Z,92183.78
2023-04-26T14:15:13.372Z,92184.91
2023-04-26T14:16:45.279Z,92189.41
2023-04-26T14:18:17.417Z,92186.94
2023-04-26T14:19:49.244Z,92190.31
2023-04-26T14:21:21.033Z,92185.13
2023-04-26T14:22:53.004Z,92196.38
2023-04-26T14:24:25.566Z,92196.81
2023-04-26T14:25:57.309Z,92196.81
2023-04-26T14:27:28.797Z,92194.78
2023-04-26T14:29:00.761Z,92196.81
2023-04-26T14:30:32.327Z,92199.88
2023-04-26T14:32:04.183Z,92208.63
2023-04-26T14:33:35.965Z,92203.91
2023-04-26T14:35:08.068Z,92211.78
2023-04-26T14:36:40.139Z,92209.97
2023-04-26T14:38:12.050Z,92217.22
2023-04-26T14:39:43.845Z,92218.81
2023-04-26T14:41:17.073Z,92214.09
2023-04-26T14:42:49.122Z,92217.44
2023-04-26T14:44:22.632Z,92222.22
2023-04-26T14:45:55.576Z,92233.53
2023-04-26T14:47:27.943Z,92233.75
2023-04-26T14:48:59.891Z,92231.50
2023-04-26T14:50:31.444Z,92236.09
2023-04-26T14:52:04.420Z,92232.50
2023-04-26T14:53:36.065Z,92246.28
2023-04-26T14:55:07.913Z,92239.19
2023-04-26T14:56:39.696Z,92241.09
2023-04-26T14:58:11.461Z,92232.81
2023-04-26T14:59:43.379Z,92244.38
2023-04-26T15:01:15.763Z,92243.75
2023-04-26T15:02:47.774Z,92247.66
2023-04-26T15:04:19.956Z,92251.13
2023-04-26T15:05:52.009Z,92252.38
2023-04-26T15:07:31.928Z,92247.13
2023-04-26T15:09:04.694Z,92258.03
2023-04-26T15:10:36.504Z,92255.78
2023-04-26T15:12:08.007Z,92260.84
2023-04-26T15:13:39.810Z,92263.75
2023-04-26T15:15:11.644Z,92269.16
2023-04-26T15:16:43.385Z,92267.56
2023-04-26T15:18:15.386Z,92267.91
2023-04-26T15:19:47.482Z,92269.34
2023-04-26T15:21:19.315Z,92271.00
2023-04-26T15:22:51.099Z,92270.53
2023-04-26T15:24:23.206Z,92268.97
2023-04-26T15:25:55.544Z,92271.41
2023-04-26T15:27:27.051Z,92272.72
2023-04-26T15:28:58.570Z,92277.19
2023-04-26T15:30:30.744Z,92271.81
2023-04-26T15:32:03.402Z,92274.03
2023-04-26T15:33:35.223Z,92279.09
2023-04-26T15:35:08.341Z,92275.63
2023-04-26T15:36:40.741Z,92286.06
2023-04-26T15:38:12.445Z,92284.47
2023-04-26T15:39:43.997Z,92274.50
2023-04-26T15:41:16.070Z,92279.09
2023-04-26T15:42:49.327Z,92277.50
2023-04-26T15:44:21.207Z,92293.84
2023-04-26T15:45:53.552Z,92284.19
2023-04-26T15:47:25.353Z,92279.94
2023-04-26T15:48:57.174Z,92284.41
2023-04-26T15:50:29.227Z,92292.03
2023-04-26T15:52:01.366Z,92295.97
2023-04-26T15:53:32.946Z,92294.72
2023-04-26T15:55:05.425Z,92296.16
2023-04-26T15:56:37.113Z,92290.44
2023-04-26T15:58:09.198Z,92295.03
2023-04-26T15:59:40.979Z,92297.09
2023-04-26T16:01:12.766Z,92293.47
2023-04-26T16:02:45.289Z,92294.09
2023-04-26T16:04:17.560Z,92299.63
2023-04-26T16:05:49.257Z,92292.34
2023-04-26T16:07:20.970Z,92296.94
2023-04-26T16:08:52.552Z,92293.00
2023-04-26T16:10:24.247Z,92294.78
2023-04-26T16:11:56.124Z,92302.84
2023-04-26T16:13:28.299Z,92294.03
2023-04-26T16:15:00.335Z,92296.28
2023-04-26T16:16:32.248Z,92297.09
2023-04-26T16:18:04.492Z,92307.13
2023-04-26T16:19:36.008Z,92310.94
2023-04-26T16:21:09.882Z,92304.44
2023-04-26T16:22:42.315Z,92307.66
2023-04-26T16:24:15.531Z,92305.28
2023-04-26T16:25:47.080Z,92311.94
2023-04-26T16:27:21.056Z,92311.16
2023-04-26T16:28:52.589Z,92317.31
2023-04-26T16:30:24.195Z,92311.34
2023-04-26T16:31:56.321Z,92317.69
2023-04-26T16:33:28.609Z,92311.09
2023-04-26T16:35:01.068Z,92316.00
2023-04-26T16:36:33.098Z,92323.75
2023-04-26T16:38:04.909Z,92325.44
2023-04-26T16:39:36.670Z,92318.00
2023-04-26T16:41:08.494Z,92330.97
2023-04-26T16:42:44.454Z,92327.81
2023-04-26T16:44:17.037Z,92331.59
2023-04-26T16:45:48.630Z,92321.50
2023-04-26T16:47:20.517Z,92328.66
2023-04-26T16:48:52.037Z,92328.50
2023-04-26T16:50:23.668Z,92330.38
2023-04-26T16:51:59.040Z,92327.06
2023-04-26T16:53:31.217Z,92331.66
2023-04-26T16:55:03.091Z,92337.66
2023-04-26T16:56:35.010Z,92343.38
2023-04-26T16:58:06.927Z,92337.97
2023-04-26T16:59:38.856Z,92337.97
2023-04-26T17:01:11.325Z,92337.50
2023-04-26T17:02:42.955Z,92340.19
2023-04-26T17:04:15.012Z,92341.00
2023-04-26T17:05:49.977Z,92340.41
2023-04-26T17:07:22.618Z,92343.88
2023-04-26T17:08:54.199Z,92347.19
2023-04-26T17:10:26.164Z,92344.19
2023-04-26T17:11:57.904Z,92353.03
2023-04-26T17:13:30.916Z,92365.53
2023-04-26T17:15:08.334Z,92363.97
2023-04-26T17:16:40.685Z,92364.59
2023-04-26T17:18:12.358Z,92371.53
2023-04-26T17:19:43.950Z,92366.97
2023-04-26T17:21:15.875Z,92362.06
2023-04-26T17:22:47.500Z,92380.41
2023-04-26T17:24:19.738Z,92381.22
2023-04-26T17:25:53.261Z,92388.81
2023-04-26T17:27:27.139Z,92384.84
2023-04-26T17:28:58.817Z,92394.81
2023-04-26T17:30:30.675Z,92392.91
2023-04-26T17:32:02.363Z,92394.03
2023-04-26T17:33:34.069Z,92395.59
2023-04-26T17:35:06.642Z,92407.47
2023-04-26T17:36:38.140Z,92402.56
2023-04-26T17:38:10.176Z,92403.66
2023-04-26T17:39:41.940Z,92409.81
2023-04-26T17:41:14.020Z,92407.47
2023-04-26T17:42:46.224Z,92414.59
2023-04-26T17:44:18.260Z,92426.59
2023-04-26T17:45:50.330Z,92425.66
2023-04-26T17:47:22.000Z,92431.34
2023-04-26T17:48:53.994Z,92418.22
2023-04-26T17:50:25.937Z,92427.41
2023-04-26T17:51:57.515Z,92429.59
2023-04-26T17:53:29.176Z,92431.84
2023-04-26T17:55:02.549Z,92435.16
2023-04-26T17:56:34.078Z,92440.34
2023-04-26T17:58:05.799Z,92446.03
2023-04-26T17:59:37.796Z,92444.44
2023-04-26T18:01:09.438Z,92451.56
2023-04-26T18:02:41.278Z,92451.09
2023-04-26T18:04:13.021Z,92452.50
2023-04-26T18:05:45.111Z,92451.41
2023-04-26T18:07:17.040Z,92452.81
2023-04-26T18:08:48.739Z,92461.03